Portada
METAR-TAF:

METAR-TAF

Aeroports :

Aeroport de València

València, Espanya

latitud: 39-30N, longitud: 000-28W, altitud: 69 m

Observació

L'informe es va fer fa 26 minuts, a les 17:00 UTC
Vent 5 kt del Est
Temperatura 21°C
Humitat 78%
Pressió 1013 hPa
Visibilitat 10 km o més
Escasses núvols a una alçada de 4000 ft, Cumulus congestus.

METAR: LEVC 191700Z 08005KT 9999 FEW040TCU 21/17 Q1013 NOSIG

Hora: 19:26 (17:26 UTC)

Pronòstic

L'informe es va fer fa 6 hores i 26 minuts, a les 11:00 UTC
Pronòstic vàlid del 19 a les 12 UTC al 20 a les 12 UTC
Vent 6 kt del Oest/Nord-Oest
Visibilitat 10 km o més
Núvols disperses a una alçada de 4000 ft
Probabilitat 40% :
Temporalment
l' 19 a les 14 UTC al 19 a les 22 UTC
Visibilitat: 4000 m
Escasses núvols a una alçada de 2200 ft, Cumulonimbus.
Cel ennuvolat a una alçada de 3000 ft
tempesta, pluja

TAF: LEVC 191100Z 1912/2012 30006KT 9999 SCT040 TX21/1912Z TN17/2006Z PROB40 TEMPO 1914/1922 4000 TSRA FEW022CB BKN030

Observacions i pronòstics meteorològics de més de 4000 aeroports (METAR i TAF).

Les estacions disponibles són els punts grocs i vermells al mapa.

Posi el ratolí al punt desitjat per veure el nom de l'estació.

Feu clic per veure les observacions i els pronòstics meteorològics.

Per canviar el mapa: feu clic els botons verds amb una creu de color negre per apropar; al botó verd amb un guió per allunyar la imatge; o en les fletxes verdes per a mapes adjacents.


METAR-TAF: